sensor_id;sensor_type;location;lat;lon;timestamp;temperature;humidity
23087;DHT22;11712;51.134;4.156;2022-08-02T00:00:59;19.80;99.90
23087;DHT22;11712;51.134;4.156;2022-08-02T00:03:25;19.90;99.90
23087;DHT22;11712;51.134;4.156;2022-08-02T00:05:51;19.80;99.90
23087;DHT22;11712;51.134;4.156;2022-08-02T00:08:17;20.00;99.90
23087;DHT22;11712;51.134;4.156;2022-08-02T00:10:43;19.80;99.90
23087;DHT22;11712;51.134;4.156;2022-08-02T00:13:08;19.70;99.90
23087;DHT22;11712;51.134;4.156;2022-08-02T00:15:34;19.70;99.90
23087;DHT22;11712;51.134;4.156;2022-08-02T00:18:00;19.70;99.90
23087;DHT22;11712;51.134;4.156;2022-08-02T00:20:25;19.80;99.90
23087;DHT22;11712;51.134;4.156;2022-08-02T00:22:51;19.80;99.90
23087;DHT22;11712;51.134;4.156;2022-08-02T00:25:16;19.70;99.90
23087;DHT22;11712;51.134;4.156;2022-08-02T00:27:42;19.70;99.90
23087;DHT22;11712;51.134;4.156;2022-08-02T00:30:08;19.70;99.90
23087;DHT22;11712;51.134;4.156;2022-08-02T00:32:34;19.70;99.90
23087;DHT22;11712;51.134;4.156;2022-08-02T00:34:59;19.60;99.90
23087;DHT22;11712;51.134;4.156;2022-08-02T00:37:25;19.60;99.90
23087;DHT22;11712;51.134;4.156;2022-08-02T00:39:51;19.50;99.90
23087;DHT22;11712;51.134;4.156;2022-08-02T00:42:16;19.50;99.90
23087;DHT22;11712;51.134;4.156;2022-08-02T00:44:42;19.50;99.90
23087;DHT22;11712;51.134;4.156;2022-08-02T00:47:08;19.50;99.90
23087;DHT22;11712;51.134;4.156;2022-08-02T00:49:34;19.50;99.90
23087;DHT22;11712;51.134;4.156;2022-08-02T00:52:00;19.60;99.90
23087;DHT22;11712;51.134;4.156;2022-08-02T00:54:25;19.60;99.90
23087;DHT22;11712;51.134;4.156;2022-08-02T00:56:51;19.70;99.90
23087;DHT22;11712;51.134;4.156;2022-08-02T00:59:17;19.60;99.90
23087;DHT22;11712;51.134;4.156;2022-08-02T01:01:43;19.60;99.90
23087;DHT22;11712;51.134;4.156;2022-08-02T01:04:12;19.60;99.90
23087;DHT22;11712;51.134;4.156;2022-08-02T01:06:39;19.70;99.90
23087;DHT22;11712;51.134;4.156;2022-08-02T01:09:05;19.80;99.90
23087;DHT22;11712;51.134;4.156;2022-08-02T01:11:32;19.40;99.90
23087;DHT22;11712;51.134;4.156;2022-08-02T01:14:18;19.30;99.90
23087;DHT22;11712;51.134;4.156;2022-08-02T01:17:02;19.30;99.90
23087;DHT22;11712;51.134;4.156;2022-08-02T01:19:44;19.30;99.90
23087;DHT22;11712;51.134;4.156;2022-08-02T01:25:06;19.00;99.90
23087;DHT22;11712;51.134;4.156;2022-08-02T01:28:20;18.80;99.90
23087;DHT22;11712;51.134;4.156;2022-08-02T01:30:56;18.50;99.90
23087;DHT22;11712;51.134;4.156;2022-08-02T01:33:27;18.20;99.90
23087;DHT22;11712;51.134;4.156;2022-08-02T01:35:55;18.10;99.90
23087;DHT22;11712;51.134;4.156;2022-08-02T01:38:32;18.40;99.90
23087;DHT22;11712;51.134;4.156;2022-08-02T01:41:01;18.50;99.90
23087;DHT22;11712;51.134;4.156;2022-08-02T01:43:28;18.60;99.90
23087;DHT22;11712;51.134;4.156;2022-08-02T01:45:55;18.60;99.90
23087;DHT22;11712;51.134;4.156;2022-08-02T01:48:25;18.50;99.90
23087;DHT22;11712;51.134;4.156;2022-08-02T01:50:52;18.60;99.90
23087;DHT22;11712;51.134;4.156;2022-08-02T01:53:19;18.60;99.90
23087;DHT22;11712;51.134;4.156;2022-08-02T01:55:49;18.70;99.90
23087;DHT22;11712;51.134;4.156;2022-08-02T01:58:17;18.70;99.90
23087;DHT22;11712;51.134;4.156;2022-08-02T02:00:45;18.70;99.90
23087;DHT22;11712;51.134;4.156;2022-08-02T02:03:19;18.70;99.90
23087;DHT22;11712;51.134;4.156;2022-08-02T02:05:47;18.60;99.90
23087;DHT22;11712;51.134;4.156;2022-08-02T02:08:15;18.60;99.90
23087;DHT22;11712;51.134;4.156;2022-08-02T02:10:44;18.50;99.90
23087;DHT22;11712;51.134;4.156;2022-08-02T02:13:16;18.40;99.90
23087;DHT22;11712;51.134;4.156;2022-08-02T02:15:46;18.50;99.90
23087;DHT22;11712;51.134;4.156;2022-08-02T02:18:33;18.30;99.90
23087;DHT22;11712;51.134;4.156;2022-08-02T02:21:03;18.40;99.90
23087;DHT22;11712;51.134;4.156;2022-08-02T02:23:28;18.30;99.90
23087;DHT22;11712;51.134;4.156;2022-08-02T02:25:54;18.30;99.90
23087;DHT22;11712;51.134;4.156;2022-08-02T02:28:25;18.30;99.90
23087;DHT22;11712;51.134;4.156;2022-08-02T02:31:09;18.30;99.90
23087;DHT22;11712;51.134;4.156;2022-08-02T02:33:40;18.30;99.90
23087;DHT22;11712;51.134;4.156;2022-08-02T02:36:07;18.30;99.90
23087;DHT22;11712;51.134;4.156;2022-08-02T02:38:33;18.30;99.90
23087;DHT22;11712;51.134;4.156;2022-08-02T02:41:02;18.30;99.90
23087;DHT22;11712;51.134;4.156;2022-08-02T02:43:31;18.20;99.90
23087;DHT22;11712;51.134;4.156;2022-08-02T02:45:59;18.20;99.90
23087;DHT22;11712;51.134;4.156;2022-08-02T02:48:26;17.90;99.90
23087;DHT22;11712;51.134;4.156;2022-08-02T02:50:54;17.80;99.90
23087;DHT22;11712;51.134;4.156;2022-08-02T02:53:21;17.80;99.90
23087;DHT22;11712;51.134;4.156;2022-08-02T02:55:47;17.70;99.90
23087;DHT22;11712;51.134;4.156;2022-08-02T02:58:13;17.70;99.90
23087;DHT22;11712;51.134;4.156;2022-08-02T03:00:39;17.70;99.90
23087;DHT22;11712;51.134;4.156;2022-08-02T03:03:24;17.90;99.90
23087;DHT22;11712;51.134;4.156;2022-08-02T03:05:50;17.80;99.90
23087;DHT22;11712;51.134;4.156;2022-08-02T03:08:16;17.70;99.90
23087;DHT22;11712;51.134;4.156;2022-08-02T03:10:43;17.40;99.90
23087;DHT22;11712;51.134;4.156;2022-08-02T03:13:10;17.30;99.90
23087;DHT22;11712;51.134;4.156;2022-08-02T03:15:37;17.30;99.90
23087;DHT22;11712;51.134;4.156;2022-08-02T03:18:04;17.30;99.90
23087;DHT22;11712;51.134;4.156;2022-08-02T03:20:32;17.30;99.90
23087;DHT22;11712;51.134;4.156;2022-08-02T03:22:57;17.30;99.90
23087;DHT22;11712;51.134;4.156;2022-08-02T03:25:23;17.40;99.90
23087;DHT22;11712;51.134;4.156;2022-08-02T03:27:49;17.40;99.90
23087;DHT22;11712;51.134;4.156;2022-08-02T03:30:15;17.40;99.90
23087;DHT22;11712;51.134;4.156;2022-08-02T03:32:44;17.40;99.90
23087;DHT22;11712;51.134;4.156;2022-08-02T03:35:13;17.30;99.90
23087;DHT22;11712;51.134;4.156;2022-08-02T03:37:39;17.30;99.90
23087;DHT22;11712;51.134;4.156;2022-08-02T03:40:08;17.20;99.90
23087;DHT22;11712;51.134;4.156;2022-08-02T03:42:34;17.20;99.90
23087;DHT22;11712;51.134;4.156;2022-08-02T03:45:02;17.20;99.90
23087;DHT22;11712;51.134;4.156;2022-08-02T03:47:28;17.30;99.90
23087;DHT22;11712;51.134;4.156;2022-08-02T03:49:55;17.20;99.90
23087;DHT22;11712;51.134;4.156;2022-08-02T03:52:22;17.20;99.90
23087;DHT22;11712;51.134;4.156;2022-08-02T03:54:48;17.10;99.90
23087;DHT22;11712;51.134;4.156;2022-08-02T03:57:14;17.00;99.90
23087;DHT22;11712;51.134;4.156;2022-08-02T03:59:44;17.10;99.90
23087;DHT22;11712;51.134;4.156;2022-08-02T04:02:10;17.10;99.90
23087;DHT22;11712;51.134;4.156;2022-08-02T04:04:36;17.10;99.90
23087;DHT22;11712;51.134;4.156;2022-08-02T04:07:02;17.00;99.90
23087;DHT22;11712;51.134;4.156;2022-08-02T04:09:28;17.00;99.90
23087;DHT22;11712;51.134;4.156;2022-08-02T04:11:54;17.10;99.90
23087;DHT22;11712;51.134;4.156;2022-08-02T04:14:20;16.90;99.90
23087;DHT22;11712;51.134;4.156;2022-08-02T04:16:51;17.00;99.90
23087;DHT22;11712;51.134;4.156;2022-08-02T04:22:02;16.80;99.90
23087;DHT22;11712;51.134;4.156;2022-08-02T04:24:35;16.80;99.90
23087;DHT22;11712;51.134;4.156;2022-08-02T04:27:03;16.80;99.90
23087;DHT22;11712;51.134;4.156;2022-08-02T04:29:29;16.80;99.90
23087;DHT22;11712;51.134;4.156;2022-08-02T04:31:56;17.00;99.90
23087;DHT22;11712;51.134;4.156;2022-08-02T04:34:22;16.90;99.90
23087;DHT22;11712;51.134;4.156;2022-08-02T04:36:47;16.90;99.90
23087;DHT22;11712;51.134;4.156;2022-08-02T04:39:14;16.90;99.90
23087;DHT22;11712;51.134;4.156;2022-08-02T04:41:43;16.90;99.90
23087;DHT22;11712;51.134;4.156;2022-08-02T04:44:09;16.90;99.90
23087;DHT22;11712;51.134;4.156;2022-08-02T04:46:36;17.00;99.90
23087;DHT22;11712;51.134;4.156;2022-08-02T04:49:02;17.00;99.90
23087;DHT22;11712;51.134;4.156;2022-08-02T04:51:28;17.10;99.90
23087;DHT22;11712;51.134;4.156;2022-08-02T04:53:53;17.40;99.90
23087;DHT22;11712;51.134;4.156;2022-08-02T04:56:19;17.50;99.90
23087;DHT22;11712;51.134;4.156;2022-08-02T04:58:45;17.70;99.90
23087;DHT22;11712;51.134;4.156;2022-08-02T05:01:10;17.70;99.90
23087;DHT22;11712;51.134;4.156;2022-08-02T05:03:36;17.70;99.90
23087;DHT22;11712;51.134;4.156;2022-08-02T05:06:02;17.80;99.90
23087;DHT22;11712;51.134;4.156;2022-08-02T05:08:28;17.90;99.90
23087;DHT22;11712;51.134;4.156;2022-08-02T05:10:53;17.70;99.90
23087;DHT22;11712;51.134;4.156;2022-08-02T05:13:19;17.70;99.90
23087;DHT22;11712;51.134;4.156;2022-08-02T05:15:47;17.70;99.90
23087;DHT22;11712;51.134;4.156;2022-08-02T05:18:14;18.20;99.90
23087;DHT22;11712;51.134;4.156;2022-08-02T05:20:39;17.90;99.90
23087;DHT22;11712;51.134;4.156;2022-08-02T05:23:05;17.90;99.90
23087;DHT22;11712;51.134;4.156;2022-08-02T05:25:30;18.00;99.90
23087;DHT22;11712;51.134;4.156;2022-08-02T05:27:56;18.10;99.90
23087;DHT22;11712;51.134;4.156;2022-08-02T05:30:22;18.10;99.90
23087;DHT22;11712;51.134;4.156;2022-08-02T05:32:49;18.20;99.90
23087;DHT22;11712;51.134;4.156;2022-08-02T05:35:18;18.20;99.90
23087;DHT22;11712;51.134;4.156;2022-08-02T05:37:44;18.30;99.90
23087;DHT22;11712;51.134;4.156;2022-08-02T05:40:10;18.40;99.90
23087;DHT22;11712;51.134;4.156;2022-08-02T05:42:36;18.30;99.90
23087;DHT22;11712;51.134;4.156;2022-08-02T05:45:02;18.40;99.90
23087;DHT22;11712;51.134;4.156;2022-08-02T05:47:28;18.50;99.90
23087;DHT22;11712;51.134;4.156;2022-08-02T05:49:54;18.60;99.90
23087;DHT22;11712;51.134;4.156;2022-08-02T05:52:22;18.90;99.90
23087;DHT22;11712;51.134;4.156;2022-08-02T05:54:54;18.70;99.90
23087;DHT22;11712;51.134;4.156;2022-08-02T06:00:10;18.80;99.90
23087;DHT22;11712;51.134;4.156;2022-08-02T06:02:43;18.90;99.90
23087;DHT22;11712;51.134;4.156;2022-08-02T06:05:14;18.90;99.90
23087;DHT22;11712;51.134;4.156;2022-08-02T06:07:41;18.90;99.90
23087;DHT22;11712;51.134;4.156;2022-08-02T06:10:08;19.10;99.90
23087;DHT22;11712;51.134;4.156;2022-08-02T06:15:12;19.00;99.90
23087;DHT22;11712;51.134;4.156;2022-08-02T06:17:39;19.00;99.90
23087;DHT22;11712;51.134;4.156;2022-08-02T06:20:06;19.30;99.90
23087;DHT22;11712;51.134;4.156;2022-08-02T06:22:33;19.30;99.90
23087;DHT22;11712;51.134;4.156;2022-08-02T06:25:00;19.50;99.90
23087;DHT22;11712;51.134;4.156;2022-08-02T06:27:27;19.60;99.90
23087;DHT22;11712;51.134;4.156;2022-08-02T06:29:53;19.70;99.90
23087;DHT22;11712;51.134;4.156;2022-08-02T06:32:20;20.00;99.90
23087;DHT22;11712;51.134;4.156;2022-08-02T06:34:45;20.20;99.90
23087;DHT22;11712;51.134;4.156;2022-08-02T06:37:30;20.30;99.90
23087;DHT22;11712;51.134;4.156;2022-08-02T06:40:10;19.90;99.90
23087;DHT22;11712;51.134;4.156;2022-08-02T06:45:33;19.90;99.90
23087;DHT22;11712;51.134;4.156;2022-08-02T06:47:59;20.20;99.90
23087;DHT22;11712;51.134;4.156;2022-08-02T06:50:25;20.20;99.90
23087;DHT22;11712;51.134;4.156;2022-08-02T06:52:52;19.90;99.90
23087;DHT22;11712;51.134;4.156;2022-08-02T06:55:18;19.90;99.90
23087;DHT22;11712;51.134;4.156;2022-08-02T06:57:43;20.00;99.90
23087;DHT22;11712;51.134;4.156;2022-08-02T07:00:09;20.20;99.90
23087;DHT22;11712;51.134;4.156;2022-08-02T07:02:36;20.30;99.90
23087;DHT22;11712;51.134;4.156;2022-08-02T07:05:03;20.30;99.90
23087;DHT22;11712;51.134;4.156;2022-08-02T07:07:28;20.30;99.90
23087;DHT22;11712;51.134;4.156;2022-08-02T07:09:55;20.50;99.90
23087;DHT22;11712;51.134;4.156;2022-08-02T07:12:20;20.40;99.90
23087;DHT22;11712;51.134;4.156;2022-08-02T07:14:46;20.40;99.90
23087;DHT22;11712;51.134;4.156;2022-08-02T07:17:12;20.40;99.90
23087;DHT22;11712;51.134;4.156;2022-08-02T07:19:38;20.40;99.90
23087;DHT22;11712;51.134;4.156;2022-08-02T07:22:04;20.60;99.90
23087;DHT22;11712;51.134;4.156;2022-08-02T07:24:30;20.70;99.90
23087;DHT22;11712;51.134;4.156;2022-08-02T07:26:57;21.00;99.90
23087;DHT22;11712;51.134;4.156;2022-08-02T07:29:23;20.90;99.90
23087;DHT22;11712;51.134;4.156;2022-08-02T07:31:49;21.10;99.90
23087;DHT22;11712;51.134;4.156;2022-08-02T07:34:14;21.20;99.90
23087;DHT22;11712;51.134;4.156;2022-08-02T07:36:40;21.10;99.90
23087;DHT22;11712;51.134;4.156;2022-08-02T07:39:06;21.20;99.90
23087;DHT22;11712;51.134;4.156;2022-08-02T07:41:32;21.30;99.90
23087;DHT22;11712;51.134;4.156;2022-08-02T07:43:58;21.40;99.90
23087;DHT22;11712;51.134;4.156;2022-08-02T07:46:23;21.40;99.90
23087;DHT22;11712;51.134;4.156;2022-08-02T07:48:50;21.40;99.90
23087;DHT22;11712;51.134;4.156;2022-08-02T07:51:19;21.60;99.90
23087;DHT22;11712;51.134;4.156;2022-08-02T07:53:45;21.60;99.90
23087;DHT22;11712;51.134;4.156;2022-08-02T07:57:32;21.70;99.90
23087;DHT22;11712;51.134;4.156;2022-08-02T07:59:58;21.80;99.90
23087;DHT22;11712;51.134;4.156;2022-08-02T08:02:23;22.00;99.90
23087;DHT22;11712;51.134;4.156;2022-08-02T08:04:50;21.70;99.90
23087;DHT22;11712;51.134;4.156;2022-08-02T08:07:16;21.90;99.90
23087;DHT22;11712;51.134;4.156;2022-08-02T08:09:41;22.20;99.90
23087;DHT22;11712;51.134;4.156;2022-08-02T08:12:09;22.20;99.90
23087;DHT22;11712;51.134;4.156;2022-08-02T08:14:35;22.10;99.90
23087;DHT22;11712;51.134;4.156;2022-08-02T08:17:01;22.00;99.90
23087;DHT22;11712;51.134;4.156;2022-08-02T08:19:27;22.00;99.90
23087;DHT22;11712;51.134;4.156;2022-08-02T08:21:53;22.20;99.90
23087;DHT22;11712;51.134;4.156;2022-08-02T08:24:19;22.40;99.90
23087;DHT22;11712;51.134;4.156;2022-08-02T08:26:44;22.50;99.90
23087;DHT22;11712;51.134;4.156;2022-08-02T08:29:10;22.60;99.90
23087;DHT22;11712;51.134;4.156;2022-08-02T08:31:36;22.80;99.90
23087;DHT22;11712;51.134;4.156;2022-08-02T08:34:03;22.90;99.90
23087;DHT22;11712;51.134;4.156;2022-08-02T08:36:28;22.90;99.90
23087;DHT22;11712;51.134;4.156;2022-08-02T08:38:55;22.90;99.90
23087;DHT22;11712;51.134;4.156;2022-08-02T08:41:21;22.80;99.90
23087;DHT22;11712;51.134;4.156;2022-08-02T08:43:47;22.60;99.90
23087;DHT22;11712;51.134;4.156;2022-08-02T08:46:29;22.70;99.90
23087;DHT22;11712;51.134;4.156;2022-08-02T08:49:00;23.00;99.90
23087;DHT22;11712;51.134;4.156;2022-08-02T08:51:30;23.10;99.90
23087;DHT22;11712;51.134;4.156;2022-08-02T08:54:02;23.30;99.90
23087;DHT22;11712;51.134;4.156;2022-08-02T08:56:32;23.40;99.90
23087;DHT22;11712;51.134;4.156;2022-08-02T08:58:59;23.60;99.90
23087;DHT22;11712;51.134;4.156;2022-08-02T09:01:25;23.40;99.90
23087;DHT22;11712;51.134;4.156;2022-08-02T09:03:51;23.20;99.90
23087;DHT22;11712;51.134;4.156;2022-08-02T09:06:16;23.20;99.90
23087;DHT22;11712;51.134;4.156;2022-08-02T09:08:42;23.40;99.90
23087;DHT22;11712;51.134;4.156;2022-08-02T09:11:16;23.60;99.90
23087;DHT22;11712;51.134;4.156;2022-08-02T09:13:57;24.00;99.90
23087;DHT22;11712;51.134;4.156;2022-08-02T09:16:38;24.00;99.90
23087;DHT22;11712;51.134;4.156;2022-08-02T09:19:22;24.20;99.90
23087;DHT22;11712;51.134;4.156;2022-08-02T09:21:49;24.30;99.90
23087;DHT22;11712;51.134;4.156;2022-08-02T09:24:22;24.50;99.90
23087;DHT22;11712;51.134;4.156;2022-08-02T09:26:49;24.60;99.90
23087;DHT22;11712;51.134;4.156;2022-08-02T09:29:16;24.50;99.90
23087;DHT22;11712;51.134;4.156;2022-08-02T09:31:43;24.60;99.90
23087;DHT22;11712;51.134;4.156;2022-08-02T09:34:09;24.60;99.90
23087;DHT22;11712;51.134;4.156;2022-08-02T09:36:43;24.80;99.90
23087;DHT22;11712;51.134;4.156;2022-08-02T09:39:11;25.10;99.90
23087;DHT22;11712;51.134;4.156;2022-08-02T09:41:39;25.10;99.90
23087;DHT22;11712;51.134;4.156;2022-08-02T09:44:09;25.20;99.90
23087;DHT22;11712;51.134;4.156;2022-08-02T09:46:37;25.30;99.90
23087;DHT22;11712;51.134;4.156;2022-08-02T09:49:14;25.30;99.90
23087;DHT22;11712;51.134;4.156;2022-08-02T09:51:53;25.50;99.90
23087;DHT22;11712;51.134;4.156;2022-08-02T09:54:27;25.80;99.90
23087;DHT22;11712;51.134;4.156;2022-08-02T09:57:00;25.80;99.90
23087;DHT22;11712;51.134;4.156;2022-08-02T09:59:26;25.80;99.90
23087;DHT22;11712;51.134;4.156;2022-08-02T10:01:53;26.00;99.90
23087;DHT22;11712;51.134;4.156;2022-08-02T10:04:21;25.90;99.90
23087;DHT22;11712;51.134;4.156;2022-08-02T10:06:47;25.90;99.90
23087;DHT22;11712;51.134;4.156;2022-08-02T10:09:13;26.00;99.90
23087;DHT22;11712;51.134;4.156;2022-08-02T10:11:39;25.80;99.90
23087;DHT22;11712;51.134;4.156;2022-08-02T10:14:07;25.70;99.90
23087;DHT22;11712;51.134;4.156;2022-08-02T10:16:35;25.80;99.90
23087;DHT22;11712;51.134;4.156;2022-08-02T10:19:02;25.60;99.90
23087;DHT22;11712;51.134;4.156;2022-08-02T10:21:47;25.40;99.90
23087;DHT22;11712;51.134;4.156;2022-08-02T10:24:16;25.10;99.90
23087;DHT22;11712;51.134;4.156;2022-08-02T10:26:44;25.20;99.90
23087;DHT22;11712;51.134;4.156;2022-08-02T10:29:20;25.50;99.90
23087;DHT22;11712;51.134;4.156;2022-08-02T10:31:57;25.70;99.90
23087;DHT22;11712;51.134;4.156;2022-08-02T10:34:46;26.00;99.90
23087;DHT22;11712;51.134;4.156;2022-08-02T10:37:13;26.20;99.90
23087;DHT22;11712;51.134;4.156;2022-08-02T10:39:41;26.40;99.90
23087;DHT22;11712;51.134;4.156;2022-08-02T10:42:07;26.80;99.90
23087;DHT22;11712;51.134;4.156;2022-08-02T10:44:34;26.90;99.90
23087;DHT22;11712;51.134;4.156;2022-08-02T10:47:26;27.10;99.90
23087;DHT22;11712;51.134;4.156;2022-08-02T10:49:55;26.90;99.90
23087;DHT22;11712;51.134;4.156;2022-08-02T10:52:31;26.70;99.90
23087;DHT22;11712;51.134;4.156;2022-08-02T10:55:02;26.70;99.90
23087;DHT22;11712;51.134;4.156;2022-08-02T10:57:33;26.60;99.90
23087;DHT22;11712;51.134;4.156;2022-08-02T11:02:44;26.70;99.90
23087;DHT22;11712;51.134;4.156;2022-08-02T11:07:51;27.20;99.90
23087;DHT22;11712;51.134;4.156;2022-08-02T11:10:38;27.20;99.90
23087;DHT22;11712;51.134;4.156;2022-08-02T11:13:12;27.10;99.90
23087;DHT22;11712;51.134;4.156;2022-08-02T11:18:20;26.80;99.90
23087;DHT22;11712;51.134;4.156;2022-08-02T11:20:46;26.80;99.90
23087;DHT22;11712;51.134;4.156;2022-08-02T11:23:51;27.10;99.90
23087;DHT22;11712;51.134;4.156;2022-08-02T11:26:46;27.10;99.90
23087;DHT22;11712;51.134;4.156;2022-08-02T11:29:12;27.10;99.90
23087;DHT22;11712;51.134;4.156;2022-08-02T11:31:42;27.20;99.90
23087;DHT22;11712;51.134;4.156;2022-08-02T11:34:08;27.20;99.90
23087;DHT22;11712;51.134;4.156;2022-08-02T11:36:49;27.10;99.90
23087;DHT22;11712;51.134;4.156;2022-08-02T11:39:20;27.30;99.90
23087;DHT22;11712;51.134;4.156;2022-08-02T11:41:54;27.40;99.90
23087;DHT22;11712;51.134;4.156;2022-08-02T11:44:22;27.60;99.90
23087;DHT22;11712;51.134;4.156;2022-08-02T11:47:00;27.90;99.90
23087;DHT22;11712;51.134;4.156;2022-08-02T11:49:27;28.00;99.90
23087;DHT22;11712;51.134;4.156;2022-08-02T11:52:02;28.20;99.90
23087;DHT22;11712;51.134;4.156;2022-08-02T11:54:35;28.40;99.90
23087;DHT22;11712;51.134;4.156;2022-08-02T11:57:14;28.30;99.90
23087;DHT22;11712;51.134;4.156;2022-08-02T11:59:41;28.30;99.90
23087;DHT22;11712;51.134;4.156;2022-08-02T12:02:08;28.30;99.90
23087;DHT22;11712;51.134;4.156;2022-08-02T12:04:35;28.10;99.90
23087;DHT22;11712;51.134;4.156;2022-08-02T12:07:02;28.30;99.90
23087;DHT22;11712;51.134;4.156;2022-08-02T12:09:30;28.40;99.90
23087;DHT22;11712;51.134;4.156;2022-08-02T12:11:57;28.30;99.90
23087;DHT22;11712;51.134;4.156;2022-08-02T12:14:25;28.20;99.90
23087;DHT22;11712;51.134;4.156;2022-08-02T12:16:51;28.20;99.90
23087;DHT22;11712;51.134;4.156;2022-08-02T12:19:36;28.20;99.90
23087;DHT22;11712;51.134;4.156;2022-08-02T12:24:47;28.30;99.90
23087;DHT22;11712;51.134;4.156;2022-08-02T12:27:38;28.20;99.90
23087;DHT22;11712;51.134;4.156;2022-08-02T12:30:12;28.30;99.90
23087;DHT22;11712;51.134;4.156;2022-08-02T12:32:39;28.60;99.90
23087;DHT22;11712;51.134;4.156;2022-08-02T12:35:10;28.90;99.90
23087;DHT22;11712;51.134;4.156;2022-08-02T12:37:38;28.60;99.90
23087;DHT22;11712;51.134;4.156;2022-08-02T12:40:26;28.60;99.90
23087;DHT22;11712;51.134;4.156;2022-08-02T12:42:56;28.50;99.90
23087;DHT22;11712;51.134;4.156;2022-08-02T12:45:23;28.60;99.90
23087;DHT22;11712;51.134;4.156;2022-08-02T12:47:52;28.40;99.90
23087;DHT22;11712;51.134;4.156;2022-08-02T12:52:49;28.40;99.90
23087;DHT22;11712;51.134;4.156;2022-08-02T12:55:21;28.60;99.90
23087;DHT22;11712;51.134;4.156;2022-08-02T12:57:51;28.80;99.90
23087;DHT22;11712;51.134;4.156;2022-08-02T13:00:53;28.90;99.90
23087;DHT22;11712;51.134;4.156;2022-08-02T13:03:19;29.10;99.90
23087;DHT22;11712;51.134;4.156;2022-08-02T13:05:46;29.10;99.90
23087;DHT22;11712;51.134;4.156;2022-08-02T13:08:12;29.10;99.90
23087;DHT22;11712;51.134;4.156;2022-08-02T13:10:37;29.20;99.90
23087;DHT22;11712;51.134;4.156;2022-08-02T13:13:03;29.20;99.90
23087;DHT22;11712;51.134;4.156;2022-08-02T13:15:29;29.20;99.90
23087;DHT22;11712;51.134;4.156;2022-08-02T13:17:55;29.40;99.90
23087;DHT22;11712;51.134;4.156;2022-08-02T13:20:20;29.20;99.90
23087;DHT22;11712;51.134;4.156;2022-08-02T13:22:46;28.90;99.90
23087;DHT22;11712;51.134;4.156;2022-08-02T13:25:12;28.90;99.90
23087;DHT22;11712;51.134;4.156;2022-08-02T13:27:38;29.10;99.90
23087;DHT22;11712;51.134;4.156;2022-08-02T13:30:05;28.90;99.90
23087;DHT22;11712;51.134;4.156;2022-08-02T13:32:31;28.90;99.90
23087;DHT22;11712;51.134;4.156;2022-08-02T13:34:57;29.10;99.90
23087;DHT22;11712;51.134;4.156;2022-08-02T13:37:23;29.30;99.90
23087;DHT22;11712;51.134;4.156;2022-08-02T13:39:49;29.50;99.90
23087;DHT22;11712;51.134;4.156;2022-08-02T13:42:15;29.70;99.90
23087;DHT22;11712;51.134;4.156;2022-08-02T13:44:41;29.60;99.90
23087;DHT22;11712;51.134;4.156;2022-08-02T13:47:07;29.70;99.90
23087;DHT22;11712;51.134;4.156;2022-08-02T13:49:39;29.80;99.90
23087;DHT22;11712;51.134;4.156;2022-08-02T13:52:06;30.20;99.90
23087;DHT22;11712;51.134;4.156;2022-08-02T13:54:32;30.30;99.90
23087;DHT22;11712;51.134;4.156;2022-08-02T13:56:58;30.40;99.90
23087;DHT22;11712;51.134;4.156;2022-08-02T13:59:24;30.50;99.90
23087;DHT22;11712;51.134;4.156;2022-08-02T14:01:49;30.50;99.90
23087;DHT22;11712;51.134;4.156;2022-08-02T14:04:15;30.20;99.90
23087;DHT22;11712;51.134;4.156;2022-08-02T14:06:40;30.20;99.90
23087;DHT22;11712;51.134;4.156;2022-08-02T14:09:06;30.60;99.90
23087;DHT22;11712;51.134;4.156;2022-08-02T14:11:32;30.50;99.90
23087;DHT22;11712;51.134;4.156;2022-08-02T14:13:57;30.30;99.90
23087;DHT22;11712;51.134;4.156;2022-08-02T14:16:23;30.40;99.90
23087;DHT22;11712;51.134;4.156;2022-08-02T14:18:49;30.50;99.90
23087;DHT22;11712;51.134;4.156;2022-08-02T14:21:14;30.40;99.90
23087;DHT22;11712;51.134;4.156;2022-08-02T14:23:40;30.70;99.90
23087;DHT22;11712;51.134;4.156;2022-08-02T14:26:05;31.10;99.90
23087;DHT22;11712;51.134;4.156;2022-08-02T14:28:37;30.80;99.90
23087;DHT22;11712;51.134;4.156;2022-08-02T14:31:03;31.20;99.90
23087;DHT22;11712;51.134;4.156;2022-08-02T14:33:29;31.40;99.90
23087;DHT22;11712;51.134;4.156;2022-08-02T14:35:54;31.60;99.90
23087;DHT22;11712;51.134;4.156;2022-08-02T14:38:22;32.50;99.90
23087;DHT22;11712;51.134;4.156;2022-08-02T14:40:48;33.00;99.90
23087;DHT22;11712;51.134;4.156;2022-08-02T14:43:13;33.20;99.90
23087;DHT22;11712;51.134;4.156;2022-08-02T14:45:59;32.90;99.90
23087;DHT22;11712;51.134;4.156;2022-08-02T14:48:25;33.30;99.90
23087;DHT22;11712;51.134;4.156;2022-08-02T14:50:50;33.90;99.90
23087;DHT22;11712;51.134;4.156;2022-08-02T14:53:16;34.80;99.90
23087;DHT22;11712;51.134;4.156;2022-08-02T14:55:42;34.70;99.90
23087;DHT22;11712;51.134;4.156;2022-08-02T14:58:09;33.70;99.90
23087;DHT22;11712;51.134;4.156;2022-08-02T15:00:35;33.40;99.90
23087;DHT22;11712;51.134;4.156;2022-08-02T15:03:00;33.30;99.90
23087;DHT22;11712;51.134;4.156;2022-08-02T15:05:26;33.50;99.90
23087;DHT22;11712;51.134;4.156;2022-08-02T15:07:52;32.80;99.90
23087;DHT22;11712;51.134;4.156;2022-08-02T15:10:17;32.30;99.90
23087;DHT22;11712;51.134;4.156;2022-08-02T15:12:43;33.30;99.90
23087;DHT22;11712;51.134;4.156;2022-08-02T15:15:09;34.00;99.90
23087;DHT22;11712;51.134;4.156;2022-08-02T15:17:34;34.80;99.90
23087;DHT22;11712;51.134;4.156;2022-08-02T15:20:00;34.30;99.90
23087;DHT22;11712;51.134;4.156;2022-08-02T15:22:26;33.70;99.90
23087;DHT22;11712;51.134;4.156;2022-08-02T15:24:51;33.30;99.90
23087;DHT22;11712;51.134;4.156;2022-08-02T15:27:17;32.40;99.90
23087;DHT22;11712;51.134;4.156;2022-08-02T15:29:44;32.60;99.90
23087;DHT22;11712;51.134;4.156;2022-08-02T15:32:10;32.30;99.90
23087;DHT22;11712;51.134;4.156;2022-08-02T15:34:36;33.10;99.90
23087;DHT22;11712;51.134;4.156;2022-08-02T15:37:01;33.70;99.90
23087;DHT22;11712;51.134;4.156;2022-08-02T15:39:27;33.60;99.90
23087;DHT22;11712;51.134;4.156;2022-08-02T15:41:52;34.10;99.90
23087;DHT22;11712;51.134;4.156;2022-08-02T15:44:18;34.40;99.90
23087;DHT22;11712;51.134;4.156;2022-08-02T15:46:44;33.40;99.90
23087;DHT22;11712;51.134;4.156;2022-08-02T15:49:09;33.10;99.90
23087;DHT22;11712;51.134;4.156;2022-08-02T15:51:35;33.70;99.90
23087;DHT22;11712;51.134;4.156;2022-08-02T15:54:01;34.50;99.90
23087;DHT22;11712;51.134;4.156;2022-08-02T15:56:26;34.80;99.90
23087;DHT22;11712;51.134;4.156;2022-08-02T15:58:52;33.70;99.90
23087;DHT22;11712;51.134;4.156;2022-08-02T16:01:18;33.60;99.90
23087;DHT22;11712;51.134;4.156;2022-08-02T16:03:44;34.30;99.90
23087;DHT22;11712;51.134;4.156;2022-08-02T16:06:09;34.90;99.90